sensor_id;sensor_type;location;lat;lon;timestamp;pressure;altitude;pressure_sealevel;temperature;humidity
51359;BME280;37448;51.588;7.248;2023-03-04T00:00:36;101876.63;;;2.71;75.84
51359;BME280;37448;51.588;7.248;2023-03-04T00:02:37;101874.88;;;2.70;75.89
51359;BME280;37448;51.588;7.248;2023-03-04T00:04:37;101876.63;;;2.71;75.75
51359;BME280;37448;51.588;7.248;2023-03-04T00:06:39;101878.34;;;2.70;76.08
51359;BME280;37448;51.588;7.248;2023-03-04T00:08:39;101880.94;;;2.70;75.78
51359;BME280;37448;51.588;7.248;2023-03-04T00:10:40;101877.50;;;2.71;76.11
51359;BME280;37448;51.588;7.248;2023-03-04T00:12:40;101882.69;;;2.71;75.56
51359;BME280;37448;51.588;7.248;2023-03-04T00:14:40;101874.03;;;2.71;76.13
51359;BME280;37448;51.588;7.248;2023-03-04T00:16:41;101874.94;;;2.71;76.08
51359;BME280;37448;51.588;7.248;2023-03-04T00:18:41;101869.81;;;2.73;76.47
51359;BME280;37448;51.588;7.248;2023-03-04T00:20:42;101881.00;;;2.73;76.07
51359;BME280;37448;51.588;7.248;2023-03-04T00:22:42;101880.13;;;2.73;76.08
51359;BME280;37448;51.588;7.248;2023-03-04T00:24:45;101880.13;;;2.73;76.21
51359;BME280;37448;51.588;7.248;2023-03-04T00:26:46;101875.78;;;2.72;76.07
51359;BME280;37448;51.588;7.248;2023-03-04T00:28:49;101887.03;;;2.74;76.46
51359;BME280;37448;51.588;7.248;2023-03-04T00:30:49;101876.63;;;2.71;76.03
51359;BME280;37448;51.588;7.248;2023-03-04T00:32:50;101884.44;;;2.74;76.63
51359;BME280;37448;51.588;7.248;2023-03-04T00:34:50;101874.94;;;2.71;76.82
51359;BME280;37448;51.588;7.248;2023-03-04T00:36:51;101872.34;;;2.71;76.37
51359;BME280;37448;51.588;7.248;2023-03-04T00:38:51;101862.91;;;2.72;76.46
51359;BME280;37448;51.588;7.248;2023-03-04T00:40:52;101865.47;;;2.72;76.64
51359;BME280;37448;51.588;7.248;2023-03-04T00:42:53;101862.03;;;2.71;76.82
51359;BME280;37448;51.588;7.248;2023-03-04T00:44:53;101863.69;;;2.69;77.24
51359;BME280;37448;51.588;7.248;2023-03-04T00:46:54;101861.13;;;2.69;76.97
51359;BME280;37448;51.588;7.248;2023-03-04T00:48:54;101860.31;;;2.72;75.65
51359;BME280;37448;51.588;7.248;2023-03-04T00:50:55;101863.78;;;2.72;76.01
51359;BME280;37448;51.588;7.248;2023-03-04T00:52:55;101858.63;;;2.72;76.27
51359;BME280;37448;51.588;7.248;2023-03-04T00:54:56;101856.06;;;2.74;75.96
51359;BME280;37448;51.588;7.248;2023-03-04T00:56:56;101857.81;;;2.75;75.83
51359;BME280;37448;51.588;7.248;2023-03-04T00:58:56;101862.16;;;2.76;75.72
51359;BME280;37448;51.588;7.248;2023-03-04T01:00:57;101861.28;;;2.76;75.48
51359;BME280;37448;51.588;7.248;2023-03-04T01:02:58;101861.31;;;2.77;76.32
51359;BME280;37448;51.588;7.248;2023-03-04T01:04:59;101849.25;;;2.76;76.29
51359;BME280;37448;51.588;7.248;2023-03-04T01:07:00;101848.41;;;2.76;76.64
51359;BME280;37448;51.588;7.248;2023-03-04T01:09:03;101852.72;;;2.77;76.20
51359;BME280;37448;51.588;7.248;2023-03-04T01:11:04;101854.41;;;2.76;76.63
51359;BME280;37448;51.588;7.248;2023-03-04T01:13:05;101854.41;;;2.76;76.61
51359;BME280;37448;51.588;7.248;2023-03-04T01:15:06;101851.81;;;2.75;76.73
51359;BME280;37448;51.588;7.248;2023-03-04T01:17:10;101856.97;;;2.75;77.05
51359;BME280;37448;51.588;7.248;2023-03-04T01:19:14;101857.81;;;2.75;76.33
51359;BME280;37448;51.588;7.248;2023-03-04T01:21:15;101858.66;;;2.74;77.46
51359;BME280;37448;51.588;7.248;2023-03-04T01:23:40;101850.91;;;2.74;76.55
51359;BME280;37448;51.588;7.248;2023-03-04T01:25:50;101850.00;;;2.72;76.73
51359;BME280;37448;51.588;7.248;2023-03-04T01:27:55;101850.91;;;2.74;76.63
51359;BME280;37448;51.588;7.248;2023-03-04T01:29:55;101845.72;;;2.72;77.03
51359;BME280;37448;51.588;7.248;2023-03-04T01:31:56;101842.25;;;2.72;76.58
51359;BME280;37448;51.588;7.248;2023-03-04T01:33:56;101842.31;;;2.73;75.40
51359;BME280;37448;51.588;7.248;2023-03-04T01:36:21;101840.59;;;2.74;76.32
51359;BME280;37448;51.588;7.248;2023-03-04T01:38:22;101829.44;;;2.75;76.16
51359;BME280;37448;51.588;7.248;2023-03-04T01:40:22;101836.34;;;2.76;75.95
51359;BME280;37448;51.588;7.248;2023-03-04T01:42:25;101834.66;;;2.77;75.79
51359;BME280;37448;51.588;7.248;2023-03-04T01:44:27;101827.84;;;2.79;75.41
51359;BME280;37448;51.588;7.248;2023-03-04T01:46:34;101826.16;;;2.79;75.69
51359;BME280;37448;51.588;7.248;2023-03-04T01:48:38;101830.47;;;2.80;75.91
51359;BME280;37448;51.588;7.248;2023-03-04T01:50:48;101825.19;;;2.77;75.71
51359;BME280;37448;51.588;7.248;2023-03-04T01:52:48;101835.66;;;2.80;75.95
51359;BME280;37448;51.588;7.248;2023-03-04T01:54:54;101833.06;;;2.80;75.89
51359;BME280;37448;51.588;7.248;2023-03-04T01:56:56;101832.16;;;2.78;76.21
51359;BME280;37448;51.588;7.248;2023-03-04T02:01:21;101825.31;;;2.80;76.41
51359;BME280;37448;51.588;7.248;2023-03-04T02:03:22;101827.00;;;2.80;76.52
51359;BME280;37448;51.588;7.248;2023-03-04T02:05:26;101832.16;;;2.78;76.27
51359;BME280;37448;51.588;7.248;2023-03-04T02:07:27;101833.91;;;2.79;75.90
51359;BME280;37448;51.588;7.248;2023-03-04T02:09:29;101831.31;;;2.79;75.61
51359;BME280;37448;51.588;7.248;2023-03-04T02:11:31;101835.66;;;2.80;75.68
51359;BME280;37448;51.588;7.248;2023-03-04T02:13:31;101823.66;;;2.82;75.66
51359;BME280;37448;51.588;7.248;2023-03-04T02:15:33;101828.81;;;2.82;75.37
51359;BME280;37448;51.588;7.248;2023-03-04T02:17:34;101827.06;;;2.81;74.99
51359;BME280;37448;51.588;7.248;2023-03-04T02:19:41;101824.53;;;2.83;74.83
51359;BME280;37448;51.588;7.248;2023-03-04T02:21:47;101819.44;;;2.86;74.76
51359;BME280;37448;51.588;7.248;2023-03-04T02:26:18;101818.59;;;2.85;74.84
51359;BME280;37448;51.588;7.248;2023-03-04T02:28:22;101815.19;;;2.86;75.31
51359;BME280;37448;51.588;7.248;2023-03-04T02:30:23;101813.38;;;2.84;75.82
51359;BME280;37448;51.588;7.248;2023-03-04T02:32:24;101807.34;;;2.83;75.76
51359;BME280;37448;51.588;7.248;2023-03-04T02:34:33;101808.19;;;2.82;75.63
51359;BME280;37448;51.588;7.248;2023-03-04T02:36:35;101803.88;;;2.83;75.79
51359;BME280;37448;51.588;7.248;2023-03-04T02:38:36;101809.00;;;2.81;76.59
51359;BME280;37448;51.588;7.248;2023-03-04T02:40:38;101803.84;;;2.81;75.99
51359;BME280;37448;51.588;7.248;2023-03-04T02:42:42;101803.84;;;2.81;76.43
51359;BME280;37448;51.588;7.248;2023-03-04T02:44:44;101802.97;;;2.81;76.37
51359;BME280;37448;51.588;7.248;2023-03-04T02:46:49;101798.69;;;2.81;76.71
51359;BME280;37448;51.588;7.248;2023-03-04T02:48:50;101799.53;;;2.80;76.30
51359;BME280;37448;51.588;7.248;2023-03-04T02:50:52;101799.53;;;2.80;77.11
51359;BME280;37448;51.588;7.248;2023-03-04T02:52:53;101790.88;;;2.78;76.30
51359;BME280;37448;51.588;7.248;2023-03-04T02:54:53;101789.97;;;2.78;76.48
51359;BME280;37448;51.588;7.248;2023-03-04T02:57:03;101784.81;;;2.78;76.57
51359;BME280;37448;51.588;7.248;2023-03-04T02:59:06;101797.78;;;2.79;75.79
51359;BME280;37448;51.588;7.248;2023-03-04T03:01:07;101782.28;;;2.79;76.47
51359;BME280;37448;51.588;7.248;2023-03-04T03:03:08;101787.47;;;2.79;75.49
51359;BME280;37448;51.588;7.248;2023-03-04T03:05:09;101784.03;;;2.80;75.89
51359;BME280;37448;51.588;7.248;2023-03-04T03:07:10;101782.31;;;2.81;75.95
51359;BME280;37448;51.588;7.248;2023-03-04T03:09:11;101780.63;;;2.81;76.60
51359;BME280;37448;51.588;7.248;2023-03-04T03:11:13;101787.53;;;2.82;75.87
51359;BME280;37448;51.588;7.248;2023-03-04T03:13:13;101784.03;;;2.80;75.87
51359;BME280;37448;51.588;7.248;2023-03-04T03:15:14;101784.88;;;2.79;76.29
51359;BME280;37448;51.588;7.248;2023-03-04T03:17:14;101783.16;;;2.80;75.31
51359;BME280;37448;51.588;7.248;2023-03-04T03:19:15;101780.63;;;2.81;76.12
51359;BME280;37448;51.588;7.248;2023-03-04T03:21:16;101774.56;;;2.81;74.94
51359;BME280;37448;51.588;7.248;2023-03-04T03:23:17;101777.22;;;2.82;75.46
51359;BME280;37448;51.588;7.248;2023-03-04T03:25:20;101780.72;;;2.84;75.50
51359;BME280;37448;51.588;7.248;2023-03-04T03:27:20;101765.22;;;2.84;76.11
51359;BME280;37448;51.588;7.248;2023-03-04T03:29:20;101766.00;;;2.82;75.08
51359;BME280;37448;51.588;7.248;2023-03-04T03:31:21;101769.47;;;2.82;75.45
51359;BME280;37448;51.588;7.248;2023-03-04T03:33:21;101768.66;;;2.83;75.94
51359;BME280;37448;51.588;7.248;2023-03-04T03:35:22;101773.81;;;2.83;75.54
51359;BME280;37448;51.588;7.248;2023-03-04T03:37:22;101767.81;;;2.84;75.89
51359;BME280;37448;51.588;7.248;2023-03-04T03:39:22;101769.50;;;2.84;76.25
51359;BME280;37448;51.588;7.248;2023-03-04T03:41:23;101768.66;;;2.83;75.84
51359;BME280;37448;51.588;7.248;2023-03-04T03:43:23;101766.91;;;2.82;76.48
51359;BME280;37448;51.588;7.248;2023-03-04T03:45:24;101763.47;;;2.83;76.02
51359;BME280;37448;51.588;7.248;2023-03-04T03:47:24;101764.31;;;2.82;76.09
51359;BME280;37448;51.588;7.248;2023-03-04T03:49:24;101760.84;;;2.82;76.54
51359;BME280;37448;51.588;7.248;2023-03-04T03:51:26;101763.41;;;2.80;76.08
51359;BME280;37448;51.588;7.248;2023-03-04T03:53:26;101765.97;;;2.80;76.20
51359;BME280;37448;51.588;7.248;2023-03-04T03:55:27;101770.34;;;2.83;75.95
51359;BME280;37448;51.588;7.248;2023-03-04T03:57:28;101768.59;;;2.82;75.85
51359;BME280;37448;51.588;7.248;2023-03-04T03:59:28;101761.75;;;2.82;76.23
51359;BME280;37448;51.588;7.248;2023-03-04T04:01:29;101772.06;;;2.82;76.00
51359;BME280;37448;51.588;7.248;2023-03-04T04:03:29;101771.31;;;2.86;75.17
51359;BME280;37448;51.588;7.248;2023-03-04T04:05:30;101755.81;;;2.86;75.63
51359;BME280;37448;51.588;7.248;2023-03-04T04:07:31;101757.53;;;2.86;75.37
51359;BME280;37448;51.588;7.248;2023-03-04T04:09:31;101757.56;;;2.87;75.64
51359;BME280;37448;51.588;7.248;2023-03-04T04:11:31;101754.09;;;2.87;75.15
51359;BME280;37448;51.588;7.248;2023-03-04T04:13:32;101759.25;;;2.87;75.06
51359;BME280;37448;51.588;7.248;2023-03-04T04:15:32;101769.59;;;2.87;75.64
51359;BME280;37448;51.588;7.248;2023-03-04T04:17:32;101762.72;;;2.87;75.50
51359;BME280;37448;51.588;7.248;2023-03-04T04:19:33;101765.31;;;2.87;75.64
51359;BME280;37448;51.588;7.248;2023-03-04T04:21:33;101763.56;;;2.86;75.72
51359;BME280;37448;51.588;7.248;2023-03-04T04:23:34;101758.41;;;2.86;75.72
51359;BME280;37448;51.588;7.248;2023-03-04T04:25:34;101761.81;;;2.85;75.75
51359;BME280;37448;51.588;7.248;2023-03-04T04:27:35;101765.22;;;2.84;75.73
51359;BME280;37448;51.588;7.248;2023-03-04T04:29:35;101766.97;;;2.85;76.65
51359;BME280;37448;51.588;7.248;2023-03-04T04:31:36;101759.25;;;2.85;75.96
51359;BME280;37448;51.588;7.248;2023-03-04T04:33:37;101758.34;;;2.85;75.54
51359;BME280;37448;51.588;7.248;2023-03-04T04:35:37;101763.56;;;2.86;75.96
51359;BME280;37448;51.588;7.248;2023-03-04T04:37:40;101766.16;;;2.86;75.92
51359;BME280;37448;51.588;7.248;2023-03-04T04:39:40;101764.44;;;2.87;75.97
51359;BME280;37448;51.588;7.248;2023-03-04T04:41:42;101756.69;;;2.87;76.32
51359;BME280;37448;51.588;7.248;2023-03-04T04:43:43;101758.41;;;2.86;76.09
51359;BME280;37448;51.588;7.248;2023-03-04T04:45:43;101758.41;;;2.86;76.53
51359;BME280;37448;51.588;7.248;2023-03-04T04:47:44;101765.31;;;2.87;76.39
51359;BME280;37448;51.588;7.248;2023-03-04T04:49:44;101764.44;;;2.87;76.39
51359;BME280;37448;51.588;7.248;2023-03-04T04:51:44;101765.31;;;2.87;76.05
51359;BME280;37448;51.588;7.248;2023-03-04T04:53:45;101764.47;;;2.89;76.26
51359;BME280;37448;51.588;7.248;2023-03-04T04:55:45;101765.31;;;2.87;76.30
51359;BME280;37448;51.588;7.248;2023-03-04T04:57:45;101761.91;;;2.89;76.25
51359;BME280;37448;51.588;7.248;2023-03-04T04:59:46;101767.91;;;2.87;76.50
51359;BME280;37448;51.588;7.248;2023-03-04T05:01:46;101768.72;;;2.86;76.89
51359;BME280;37448;51.588;7.248;2023-03-04T05:03:46;101772.22;;;2.89;76.89
51359;BME280;37448;51.588;7.248;2023-03-04T05:05:49;101772.13;;;2.85;77.09
51359;BME280;37448;51.588;7.248;2023-03-04T05:07:49;101769.56;;;2.85;76.57
51359;BME280;37448;51.588;7.248;2023-03-04T05:09:50;101773.84;;;2.85;77.24
51359;BME280;37448;51.588;7.248;2023-03-04T05:11:50;101763.50;;;2.85;76.79
51359;BME280;37448;51.588;7.248;2023-03-04T05:13:51;101766.09;;;2.85;76.66
51359;BME280;37448;51.588;7.248;2023-03-04T05:15:52;101767.81;;;2.84;77.31
51359;BME280;37448;51.588;7.248;2023-03-04T05:17:53;101759.19;;;2.84;77.09
51359;BME280;37448;51.588;7.248;2023-03-04T05:19:53;101760.06;;;2.84;77.39
51359;BME280;37448;51.588;7.248;2023-03-04T05:21:53;101755.75;;;2.83;76.84
51359;BME280;37448;51.588;7.248;2023-03-04T05:23:54;101757.44;;;2.83;77.63
51359;BME280;37448;51.588;7.248;2023-03-04T05:25:54;101757.44;;;2.83;77.50
51359;BME280;37448;51.588;7.248;2023-03-04T05:27:55;101759.09;;;2.81;77.72
51359;BME280;37448;51.588;7.248;2023-03-04T05:29:55;101762.56;;;2.81;77.22
51359;BME280;37448;51.588;7.248;2023-03-04T05:31:58;101762.59;;;2.83;77.90
51359;BME280;37448;51.588;7.248;2023-03-04T05:33:59;101760.00;;;2.81;77.57
51359;BME280;37448;51.588;7.248;2023-03-04T05:36:00;101760.84;;;2.82;77.75
51359;BME280;37448;51.588;7.248;2023-03-04T05:38:02;101751.41;;;2.82;78.46
51359;BME280;37448;51.588;7.248;2023-03-04T05:40:03;101752.25;;;2.81;77.64
51359;BME280;37448;51.588;7.248;2023-03-04T05:42:04;101757.41;;;2.81;77.91
51359;BME280;37448;51.588;7.248;2023-03-04T05:44:04;101762.50;;;2.80;78.13
51359;BME280;37448;51.588;7.248;2023-03-04T05:46:05;101758.25;;;2.80;78.04
51359;BME280;37448;51.588;7.248;2023-03-04T05:48:07;101758.25;;;2.80;77.86
51359;BME280;37448;51.588;7.248;2023-03-04T05:50:08;101763.41;;;2.80;77.27
51359;BME280;37448;51.588;7.248;2023-03-04T05:52:09;101760.00;;;2.81;77.37
51359;BME280;37448;51.588;7.248;2023-03-04T05:54:10;101762.56;;;2.81;77.45
51359;BME280;37448;51.588;7.248;2023-03-04T05:56:14;101765.22;;;2.84;77.63
51359;BME280;37448;51.588;7.248;2023-03-04T05:58:15;101761.75;;;2.82;77.31
51359;BME280;37448;51.588;7.248;2023-03-04T06:00:16;101763.47;;;2.83;77.20
51359;BME280;37448;51.588;7.248;2023-03-04T06:02:17;101768.66;;;2.83;77.49
51359;BME280;37448;51.588;7.248;2023-03-04T06:04:17;101776.38;;;2.83;77.85
51359;BME280;37448;51.588;7.248;2023-03-04T06:06:17;101771.22;;;2.83;77.19
51359;BME280;37448;51.588;7.248;2023-03-04T06:08:18;101764.31;;;2.82;78.30
51359;BME280;37448;51.588;7.248;2023-03-04T06:10:18;101777.22;;;2.82;77.09
51359;BME280;37448;51.588;7.248;2023-03-04T06:12:19;101767.75;;;2.83;77.11
51359;BME280;37448;51.588;7.248;2023-03-04T06:14:19;101776.41;;;2.85;77.35
51359;BME280;37448;51.588;7.248;2023-03-04T06:16:20;101772.97;;;2.84;77.39
51359;BME280;37448;51.588;7.248;2023-03-04T06:18:21;101779.00;;;2.85;77.47
51359;BME280;37448;51.588;7.248;2023-03-04T06:20:22;101784.22;;;2.86;77.98
51359;BME280;37448;51.588;7.248;2023-03-04T06:22:22;101785.88;;;2.84;77.62
51359;BME280;37448;51.588;7.248;2023-03-04T06:24:23;101788.47;;;2.84;78.63
51359;BME280;37448;51.588;7.248;2023-03-04T06:26:23;101778.06;;;2.83;78.63
51359;BME280;37448;51.588;7.248;2023-03-04T06:28:24;101786.72;;;2.83;78.69
51359;BME280;37448;51.588;7.248;2023-03-04T06:30:24;101784.13;;;2.83;78.48
51359;BME280;37448;51.588;7.248;2023-03-04T06:32:25;101790.97;;;2.83;78.84
51359;BME280;37448;51.588;7.248;2023-03-04T06:34:25;101788.41;;;2.83;78.88
51359;BME280;37448;51.588;7.248;2023-03-04T06:36:26;101793.56;;;2.83;78.72
51359;BME280;37448;51.588;7.248;2023-03-04T06:38:26;101791.03;;;2.84;78.27
51359;BME280;37448;51.588;7.248;2023-03-04T06:40:26;101793.63;;;2.84;78.36
51359;BME280;37448;51.588;7.248;2023-03-04T06:42:27;101794.47;;;2.85;78.45
51359;BME280;37448;51.588;7.248;2023-03-04T06:44:27;101790.16;;;2.84;78.75
51359;BME280;37448;51.588;7.248;2023-03-04T06:46:28;101783.28;;;2.84;79.25
51359;BME280;37448;51.588;7.248;2023-03-04T06:48:28;101792.78;;;2.85;79.18
51359;BME280;37448;51.588;7.248;2023-03-04T06:50:28;101797.06;;;2.85;78.53
51359;BME280;37448;51.588;7.248;2023-03-04T06:52:29;101785.03;;;2.85;79.22
51359;BME280;37448;51.588;7.248;2023-03-04T06:54:29;101798.81;;;2.86;78.79
51359;BME280;37448;51.588;7.248;2023-03-04T06:56:30;101798.03;;;2.89;79.58
51359;BME280;37448;51.588;7.248;2023-03-04T06:58:30;101798.88;;;2.87;79.31
51359;BME280;37448;51.588;7.248;2023-03-04T07:00:31;101798.03;;;2.89;79.71
51359;BME280;37448;51.588;7.248;2023-03-04T07:02:31;101808.34;;;2.89;79.15
51359;BME280;37448;51.588;7.248;2023-03-04T07:04:32;101801.53;;;2.91;79.45
51359;BME280;37448;51.588;7.248;2023-03-04T07:06:32;101811.84;;;2.91;79.69
51359;BME280;37448;51.588;7.248;2023-03-04T07:08:33;101808.44;;;2.92;79.22
51359;BME280;37448;51.588;7.248;2023-03-04T07:10:33;101813.59;;;2.92;79.14
51359;BME280;37448;51.588;7.248;2023-03-04T07:12:33;101811.84;;;2.91;79.82
51359;BME280;37448;51.588;7.248;2023-03-04T07:14:34;101803.28;;;2.92;79.18
51359;BME280;37448;51.588;7.248;2023-03-04T07:16:34;101804.16;;;2.92;79.68
51359;BME280;37448;51.588;7.248;2023-03-04T07:18:36;101812.81;;;2.94;79.61
51359;BME280;37448;51.588;7.248;2023-03-04T07:20:36;101810.25;;;2.96;79.48
51359;BME280;37448;51.588;7.248;2023-03-04T07:22:37;101816.25;;;2.95;79.63
51359;BME280;37448;51.588;7.248;2023-03-04T07:24:37;101815.44;;;2.96;80.11
51359;BME280;37448;51.588;7.248;2023-03-04T07:26:37;101813.75;;;2.98;79.50
51359;BME280;37448;51.588;7.248;2023-03-04T07:28:38;101816.34;;;2.98;80.41
51359;BME280;37448;51.588;7.248;2023-03-04T07:30:38;101818.16;;;3.00;79.74
51359;BME280;37448;51.588;7.248;2023-03-04T07:32:39;101819.91;;;3.01;80.11
51359;BME280;37448;51.588;7.248;2023-03-04T07:34:39;101823.41;;;3.04;80.00
51359;BME280;37448;51.588;7.248;2023-03-04T07:36:39;101827.69;;;3.03;79.97
51359;BME280;37448;51.588;7.248;2023-03-04T07:38:47;101814.88;;;3.06;80.25
51359;BME280;37448;51.588;7.248;2023-03-04T07:40:55;101812.28;;;3.06;80.01
51359;BME280;37448;51.588;7.248;2023-03-04T07:42:55;101814.97;;;3.09;80.55
51359;BME280;37448;51.588;7.248;2023-03-04T07:44:56;101816.75;;;3.12;81.23
51359;BME280;37448;51.588;7.248;2023-03-04T07:46:56;101814.28;;;3.16;80.89
51359;BME280;37448;51.588;7.248;2023-03-04T07:48:57;101824.69;;;3.20;80.50
51359;BME280;37448;51.588;7.248;2023-03-04T07:51:24;101818.78;;;3.24;81.11
51359;BME280;37448;51.588;7.248;2023-03-04T07:53:25;101817.31;;;3.32;80.60
51359;BME280;37448;51.588;7.248;2023-03-04T07:55:25;101824.53;;;3.44;81.06
51359;BME280;37448;51.588;7.248;2023-03-04T07:57:26;101818.06;;;3.62;80.91
51359;BME280;37448;51.588;7.248;2023-03-04T07:59:27;101817.06;;;3.88;79.99
51359;BME280;37448;51.588;7.248;2023-03-04T08:01:32;101811.72;;;4.18;79.38
51359;BME280;37448;51.588;7.248;2023-03-04T08:03:33;101811.38;;;4.40;79.71
51359;BME280;37448;51.588;7.248;2023-03-04T08:05:34;101811.69;;;4.56;77.77
51359;BME280;37448;51.588;7.248;2023-03-04T08:07:34;101816.28;;;4.68;77.18
51359;BME280;37448;51.588;7.248;2023-03-04T08:09:35;101810.47;;;4.78;77.30
51359;BME280;37448;51.588;7.248;2023-03-04T08:11:37;101814.94;;;4.85;76.26
51359;BME280;37448;51.588;7.248;2023-03-04T08:13:37;101820.16;;;4.88;75.23
51359;BME280;37448;51.588;7.248;2023-03-04T08:15:40;101818.53;;;4.94;76.10
51359;BME280;37448;51.588;7.248;2023-03-04T08:17:41;101819.38;;;4.91;74.81
51359;BME280;37448;51.588;7.248;2023-03-04T08:19:41;101821.06;;;4.89;74.76
51359;BME280;37448;51.588;7.248;2023-03-04T08:21:42;101821.91;;;4.89;74.85
51359;BME280;37448;51.588;7.248;2023-03-04T08:23:42;101823.47;;;4.81;74.08
51359;BME280;37448;51.588;7.248;2023-03-04T08:25:43;101817.28;;;4.73;74.46
51359;BME280;37448;51.588;7.248;2023-03-04T08:27:43;101809.41;;;4.70;74.61
51359;BME280;37448;51.588;7.248;2023-03-04T08:29:44;101824.03;;;4.66;74.91
51359;BME280;37448;51.588;7.248;2023-03-04T08:31:44;101825.78;;;4.67;74.00
51359;BME280;37448;51.588;7.248;2023-03-04T08:33:45;101821.38;;;4.65;75.01
51359;BME280;37448;51.588;7.248;2023-03-04T08:35:46;101818.78;;;4.63;74.93
51359;BME280;37448;51.588;7.248;2023-03-04T08:37:46;101818.03;;;4.69;74.62
51359;BME280;37448;51.588;7.248;2023-03-04T08:39:46;101812.94;;;4.73;74.46
51359;BME280;37448;51.588;7.248;2023-03-04T08:41:48;101813.00;;;4.75;74.71
51359;BME280;37448;51.588;7.248;2023-03-04T08:43:48;101810.66;;;4.87;74.94
51359;BME280;37448;51.588;7.248;2023-03-04T08:45:49;101808.94;;;4.88;74.58
51359;BME280;37448;51.588;7.248;2023-03-04T08:47:50;101822.06;;;4.96;74.76
51359;BME280;37448;51.588;7.248;2023-03-04T08:49:50;101816.00;;;4.95;75.18
51359;BME280;37448;51.588;7.248;2023-03-04T08:51:51;101822.06;;;4.97;75.14
51359;BME280;37448;51.588;7.248;2023-03-04T08:53:51;101818.53;;;4.94;74.09
51359;BME280;37448;51.588;7.248;2023-03-04T08:55:52;101808.28;;;4.97;74.10
51359;BME280;37448;51.588;7.248;2023-03-04T08:57:52;101824.66;;;4.97;74.67
51359;BME280;37448;51.588;7.248;2023-03-04T08:59:53;101812.59;;;4.98;74.31
51359;BME280;37448;51.588;7.248;2023-03-04T09:01:53;101817.63;;;4.90;74.72
51359;BME280;37448;51.588;7.248;2023-03-04T09:03:54;101820.88;;;4.81;75.49
51359;BME280;37448;51.588;7.248;2023-03-04T09:05:55;101817.41;;;4.79;76.14
51359;BME280;37448;51.588;7.248;2023-03-04T09:07:55;101824.94;;;4.70;77.38
51359;BME280;37448;51.588;7.248;2023-03-04T09:09:56;101814.47;;;4.64;77.95
51359;BME280;37448;51.588;7.248;2023-03-04T09:11:56;101818.56;;;4.54;79.88
51359;BME280;37448;51.588;7.248;2023-03-04T09:13:57;101818.50;;;4.51;79.86
51359;BME280;37448;51.588;7.248;2023-03-04T09:15:57;101819.16;;;4.42;81.08
51359;BME280;37448;51.588;7.248;2023-03-04T09:17:57;101815.66;;;4.38;81.06
51359;BME280;37448;51.588;7.248;2023-03-04T09:19:58;101815.59;;;4.37;81.33
51359;BME280;37448;51.588;7.248;2023-03-04T09:21:58;101812.16;;;4.38;81.27
51359;BME280;37448;51.588;7.248;2023-03-04T09:23:58;101813.00;;;4.37;82.03
51359;BME280;37448;51.588;7.248;2023-03-04T09:25:59;101819.03;;;4.36;82.04
51359;BME280;37448;51.588;7.248;2023-03-04T09:27:59;101811.16;;;4.31;81.74
51359;BME280;37448;51.588;7.248;2023-03-04T09:30:00;101809.56;;;4.36;81.77
51359;BME280;37448;51.588;7.248;2023-03-04T09:32:00;101814.81;;;4.41;81.65
51359;BME280;37448;51.588;7.248;2023-03-04T09:34:01;101811.38;;;4.40;82.54
51359;BME280;37448;51.588;7.248;2023-03-04T09:36:01;101802.66;;;4.35;82.14
51359;BME280;37448;51.588;7.248;2023-03-04T09:38:02;101812.16;;;4.38;82.51
51359;BME280;37448;51.588;7.248;2023-03-04T09:40:03;101810.56;;;4.43;82.02
51359;BME280;37448;51.588;7.248;2023-03-04T09:42:05;101807.13;;;4.44;82.17
51359;BME280;37448;51.588;7.248;2023-03-04T09:46:28;101813.06;;;4.38;83.57
51359;BME280;37448;51.588;7.248;2023-03-04T09:48:43;101810.50;;;4.40;83.68
51359;BME280;37448;51.588;7.248;2023-03-04T09:50:56;101810.59;;;4.44;83.68
51359;BME280;37448;51.588;7.248;2023-03-04T09:55:32;101806.47;;;4.53;83.87
51359;BME280;37448;51.588;7.248;2023-03-04T09:59:53;101807.34;;;4.53;83.89
51359;BME280;37448;51.588;7.248;2023-03-04T10:01:59;101809.13;;;4.56;84.02
51359;BME280;37448;51.588;7.248;2023-03-04T10:04:11;101807.41;;;4.56;84.26
51359;BME280;37448;51.588;7.248;2023-03-04T10:06:17;101801.28;;;4.53;84.41
51359;BME280;37448;51.588;7.248;2023-03-04T10:08:35;101808.97;;;4.48;84.89
51359;BME280;37448;51.588;7.248;2023-03-04T10:10:39;101800.38;;;4.49;84.89
51359;BME280;37448;51.588;7.248;2023-03-04T10:12:45;101798.63;;;4.48;84.83
51359;BME280;37448;51.588;7.248;2023-03-04T10:17:28;101805.59;;;4.52;84.77
51359;BME280;37448;51.588;7.248;2023-03-04T10:19:37;101790.88;;;4.50;85.02
51359;BME280;37448;51.588;7.248;2023-03-04T10:21:44;101789.25;;;4.53;85.95
51359;BME280;37448;51.588;7.248;2023-03-04T10:23:45;101797.13;;;4.59;86.81
51359;BME280;37448;51.588;7.248;2023-03-04T10:25:46;101786.03;;;4.65;86.41
51359;BME280;37448;51.588;7.248;2023-03-04T10:28:03;101791.28;;;4.70;86.24
51359;BME280;37448;51.588;7.248;2023-03-04T10:32:45;101786.97;;;4.69;84.99
51359;BME280;37448;51.588;7.248;2023-03-04T10:34:46;101784.38;;;4.69;85.20
51359;BME280;37448;51.588;7.248;2023-03-04T10:36:58;101785.31;;;4.71;85.82
51359;BME280;37448;51.588;7.248;2023-03-04T10:39:02;101785.31;;;4.71;85.95
51359;BME280;37448;51.588;7.248;2023-03-04T10:41:16;101787.78;;;4.66;85.43
51359;BME280;37448;51.588;7.248;2023-03-04T10:43:18;101786.06;;;4.67;85.57
51359;BME280;37448;51.588;7.248;2023-03-04T10:45:24;101786.84;;;4.63;85.55
51359;BME280;37448;51.588;7.248;2023-03-04T10:47:28;101784.97;;;4.57;85.62
51359;BME280;37448;51.588;7.248;2023-03-04T10:49:29;101785.81;;;4.54;86.34
51359;BME280;37448;51.588;7.248;2023-03-04T10:51:29;101784.91;;;4.52;86.07
51359;BME280;37448;51.588;7.248;2023-03-04T10:53:38;101792.59;;;4.49;86.13
51359;BME280;37448;51.588;7.248;2023-03-04T10:55:44;101793.47;;;4.50;86.98
51359;BME280;37448;51.588;7.248;2023-03-04T10:57:48;101790.84;;;4.48;87.15
51359;BME280;37448;51.588;7.248;2023-03-04T10:59:58;101790.03;;;4.49;86.98
51359;BME280;37448;51.588;7.248;2023-03-04T11:02:00;101792.66;;;4.52;87.05